createdAt,value
2024-01-20T00:00:58.153Z,54.32
2024-01-20T00:03:46.149Z,56.40
2024-01-20T00:06:14.616Z,57.73
2024-01-20T00:08:42.878Z,58.26
2024-01-20T00:11:11.282Z,59.17
2024-01-20T00:13:39.659Z,59.98
2024-01-20T00:16:08.013Z,60.43
2024-01-20T00:18:36.030Z,61.06
2024-01-20T00:21:04.671Z,63.80
2024-01-20T00:23:32.740Z,67.14
2024-01-20T00:26:00.993Z,62.51
2024-01-20T00:28:29.477Z,58.03
2024-01-20T00:30:57.660Z,53.88
2024-01-20T00:33:27.283Z,53.97
2024-01-20T00:35:55.788Z,55.52
2024-01-20T00:38:25.695Z,55.95
2024-01-20T00:40:53.679Z,57.97
2024-01-20T00:43:21.659Z,58.82
2024-01-20T00:45:49.666Z,59.48
2024-01-20T00:48:17.679Z,60.85
2024-01-20T00:50:45.636Z,61.23
2024-01-20T00:53:13.988Z,61.43
2024-01-20T00:55:42.036Z,64.07
2024-01-20T00:58:10.916Z,68.97
2024-01-20T01:00:39.253Z,64.92
2024-01-20T01:03:09.437Z,59.34
2024-01-20T01:05:37.716Z,55.02
2024-01-20T01:08:05.823Z,56.32
2024-01-20T01:10:33.784Z,56.81
2024-01-20T01:13:01.964Z,57.56
2024-01-20T01:15:31.879Z,58.97
2024-01-20T01:17:59.741Z,61.10
2024-01-20T01:20:27.819Z,63.85
2024-01-20T01:22:55.796Z,65.84
2024-01-20T01:25:24.051Z,65.56
2024-01-20T01:27:52.029Z,60.70
2024-01-20T01:30:20.692Z,55.19
2024-01-20T01:32:48.869Z,53.12
2024-01-20T01:35:16.908Z,54.05
2024-01-20T01:37:45.152Z,55.85
2024-01-20T01:40:14.379Z,57.15
2024-01-20T01:42:42.412Z,57.72
2024-01-20T01:45:11.389Z,58.92
2024-01-20T01:47:39.847Z,59.79
2024-01-20T01:50:08.764Z,61.52
2024-01-20T01:52:37.205Z,64.67
2024-01-20T01:55:05.959Z,69.58
2024-01-20T01:57:36.225Z,61.94
2024-01-20T02:00:05.678Z,56.66
2024-01-20T02:02:33.713Z,53.85
2024-01-20T02:05:02.195Z,55.61
2024-01-20T02:07:31.093Z,57.03
2024-01-20T02:09:59.156Z,58.43
2024-01-20T02:12:27.928Z,60.09
2024-01-20T02:14:56.523Z,61.18
2024-01-20T02:17:24.673Z,65.05
2024-01-20T02:19:52.489Z,67.16
2024-01-20T02:22:20.487Z,67.60
2024-01-20T02:24:51.042Z,58.08
2024-01-20T02:27:20.510Z,52.43
2024-01-20T02:29:48.879Z,52.74
2024-01-20T02:32:17.040Z,54.31
2024-01-20T02:34:45.239Z,56.09
2024-01-20T02:37:13.130Z,57.45
2024-01-20T02:39:41.253Z,59.60
2024-01-20T02:42:10.771Z,60.78
2024-01-20T02:44:39.946Z,61.25
2024-01-20T02:47:07.805Z,61.28
2024-01-20T02:49:36.190Z,65.03
2024-01-20T02:52:05.267Z,65.02
2024-01-20T02:54:33.267Z,60.80
2024-01-20T02:57:01.521Z,54.24
2024-01-20T02:59:29.559Z,54.06
2024-01-20T03:01:57.527Z,56.27
2024-01-20T03:04:25.542Z,57.57
2024-01-20T03:06:53.334Z,60.09
2024-01-20T03:09:21.369Z,61.09
2024-01-20T03:11:49.538Z,64.23
2024-01-20T03:14:17.384Z,64.40
2024-01-20T03:16:45.653Z,57.69
2024-01-20T03:19:13.535Z,53.82
2024-01-20T03:21:41.511Z,54.45
2024-01-20T03:24:11.366Z,57.33
2024-01-20T03:26:39.329Z,58.29
2024-01-20T03:29:07.441Z,60.08
2024-01-20T03:31:35.249Z,61.79
2024-01-20T03:34:03.232Z,64.75
2024-01-20T03:36:31.205Z,66.25
2024-01-20T03:38:59.339Z,58.10
2024-01-20T03:41:27.319Z,54.50
2024-01-20T03:43:56.047Z,55.29
2024-01-20T03:46:24.853Z,56.62
2024-01-20T03:48:53.284Z,59.02
2024-01-20T03:51:27.815Z,59.98
2024-01-20T03:53:56.323Z,61.55
2024-01-20T03:56:24.239Z,63.35
2024-01-20T03:58:52.184Z,62.68
2024-01-20T04:01:19.989Z,60.20
2024-01-20T04:03:47.890Z,55.80
2024-01-20T04:06:15.985Z,55.59
2024-01-20T04:08:44.050Z,57.08
2024-01-20T04:11:11.858Z,58.92
2024-01-20T04:13:39.630Z,59.76
2024-01-20T04:16:07.637Z,59.72
2024-01-20T04:18:35.774Z,62.42
2024-01-20T04:21:04.154Z,65.24
2024-01-20T04:23:31.999Z,64.05
2024-01-20T04:25:59.805Z,61.01
2024-01-20T04:28:27.813Z,57.66
2024-01-20T04:30:55.722Z,55.62
2024-01-20T04:33:23.615Z,57.10
2024-01-20T04:35:51.759Z,58.84
2024-01-20T04:38:19.680Z,59.61
2024-01-20T04:40:47.659Z,61.17
2024-01-20T04:43:15.525Z,64.17
2024-01-20T04:45:43.781Z,64.60
2024-01-20T04:48:12.476Z,62.20
2024-01-20T04:50:41.545Z,59.49
2024-01-20T04:53:09.745Z,57.93
2024-01-20T04:55:37.765Z,59.41
2024-01-20T04:58:05.971Z,60.23
2024-01-20T05:00:36.905Z,61.18
2024-01-20T05:03:05.147Z,63.80
2024-01-20T05:05:34.282Z,68.83
2024-01-20T05:08:02.215Z,66.49
2024-01-20T05:10:30.149Z,62.40
2024-01-20T05:12:58.158Z,56.18
2024-01-20T05:15:26.772Z,53.12
2024-01-20T05:17:54.823Z,54.50
2024-01-20T05:20:23.019Z,56.56
2024-01-20T05:22:51.336Z,58.55
2024-01-20T05:25:19.273Z,59.35
2024-01-20T05:27:47.114Z,60.45
2024-01-20T05:30:15.512Z,63.57
2024-01-20T05:32:44.217Z,66.90
2024-01-20T05:35:13.494Z,63.62
2024-01-20T05:37:41.582Z,59.58
2024-01-20T05:40:10.374Z,55.83
2024-01-20T05:42:38.382Z,56.63
2024-01-20T05:45:10.878Z,59.38
2024-01-20T05:47:38.952Z,59.95
2024-01-20T05:50:07.965Z,60.71
2024-01-20T05:52:36.039Z,61.22
2024-01-20T05:55:04.542Z,65.06
2024-01-20T05:57:32.640Z,67.66
2024-01-20T06:00:00.686Z,65.00
2024-01-20T06:02:29.170Z,63.21
2024-01-20T06:04:57.144Z,59.13
2024-01-20T06:07:24.950Z,55.91
2024-01-20T06:09:52.758Z,57.01
2024-01-20T06:12:20.654Z,58.43
2024-01-20T06:14:48.474Z,60.60
2024-01-20T06:17:16.498Z,63.80
2024-01-20T06:19:44.520Z,68.94
2024-01-20T06:22:12.668Z,63.01
2024-01-20T06:24:40.508Z,58.51
2024-01-20T06:27:08.717Z,55.47
2024-01-20T06:29:43.439Z,57.06
2024-01-20T06:32:11.784Z,59.35
2024-01-20T06:34:40.646Z,60.09
2024-01-20T06:37:09.042Z,61.37
2024-01-20T06:39:40.477Z,64.88
2024-01-20T06:42:11.602Z,67.78
2024-01-20T06:44:39.777Z,64.14
2024-01-20T06:47:10.682Z,57.03
2024-01-20T06:49:40.903Z,54.93
2024-01-20T06:52:09.029Z,56.19
2024-01-20T06:54:37.035Z,58.20
2024-01-20T06:57:05.614Z,60.45
2024-01-20T06:59:33.877Z,61.05
2024-01-20T07:02:02.154Z,64.20
2024-01-20T07:04:30.952Z,67.72
2024-01-20T07:06:59.011Z,59.88
2024-01-20T07:09:27.073Z,56.18
2024-01-20T07:11:57.602Z,55.61
2024-01-20T07:14:28.719Z,58.64
2024-01-20T07:16:56.783Z,60.43
2024-01-20T07:19:24.643Z,61.24
2024-01-20T07:21:52.496Z,64.16
2024-01-20T07:24:20.381Z,65.25
2024-01-20T07:26:48.681Z,59.16
2024-01-20T07:29:17.025Z,55.14
2024-01-20T07:31:44.899Z,55.27
2024-01-20T07:34:12.827Z,55.49
2024-01-20T07:36:41.103Z,59.17
2024-01-20T07:39:09.359Z,60.38
2024-01-20T07:41:37.194Z,61.30
2024-01-20T07:44:05.197Z,64.62
2024-01-20T07:46:33.013Z,64.45
2024-01-20T07:49:01.222Z,61.60
2024-01-20T07:51:29.280Z,55.79
2024-01-20T07:53:57.214Z,53.94
2024-01-20T07:56:25.248Z,55.62
2024-01-20T07:58:53.099Z,58.09
2024-01-20T08:01:21.032Z,59.05
2024-01-20T08:03:48.879Z,60.72
2024-01-20T08:06:17.307Z,63.18
2024-01-20T08:08:45.938Z,63.20
2024-01-20T08:11:13.841Z,59.31
2024-01-20T08:13:41.643Z,55.51
2024-01-20T08:16:09.932Z,55.40
2024-01-20T08:18:37.963Z,56.92
2024-01-20T08:21:07.901Z,59.93
2024-01-20T08:23:35.908Z,61.36
2024-01-20T08:26:06.688Z,64.33
2024-01-20T08:28:34.640Z,63.83
2024-01-20T08:31:02.792Z,57.51
2024-01-20T08:33:30.935Z,55.87
2024-01-20T08:35:58.935Z,56.59
2024-01-20T08:38:27.020Z,59.47
2024-01-20T08:40:55.649Z,61.42
2024-01-20T08:43:24.321Z,63.91
2024-01-20T08:45:52.353Z,64.99
2024-01-20T08:48:20.373Z,60.39
2024-01-20T08:50:48.345Z,56.52
2024-01-20T08:53:16.211Z,55.54
2024-01-20T08:55:44.150Z,56.49
2024-01-20T08:58:12.038Z,58.38
2024-01-20T09:00:40.540Z,60.14
2024-01-20T09:03:08.573Z,61.51
2024-01-20T09:05:38.536Z,64.13
2024-01-20T09:08:10.561Z,63.99
2024-01-20T09:10:39.059Z,58.83
2024-01-20T09:13:08.482Z,55.81
2024-01-20T09:15:36.768Z,56.53
2024-01-20T09:18:05.506Z,57.54
2024-01-20T09:20:33.736Z,59.62
2024-01-20T09:23:03.072Z,61.00
2024-01-20T09:25:31.021Z,62.40
2024-01-20T09:28:01.154Z,64.05
2024-01-20T09:30:29.162Z,61.45
2024-01-20T09:32:57.242Z,57.02
2024-01-20T09:35:25.624Z,56.27
2024-01-20T09:37:53.509Z,57.93
2024-01-20T09:40:21.380Z,59.04
2024-01-20T09:42:50.110Z,60.09
2024-01-20T09:45:18.375Z,61.93
2024-01-20T09:47:46.491Z,63.53
2024-01-20T09:50:14.980Z,63.86
2024-01-20T09:52:57.737Z,61.25
2024-01-20T09:55:27.573Z,55.05
2024-01-20T09:57:56.644Z,54.19
2024-01-20T10:00:25.501Z,54.99
2024-01-20T10:02:54.803Z,56.79
2024-01-20T10:05:25.947Z,58.62
2024-01-20T10:07:53.937Z,60.11
2024-01-20T10:10:23.257Z,61.03
2024-01-20T10:12:52.942Z,62.73
2024-01-20T10:15:34.361Z,62.59
2024-01-20T10:18:12.395Z,58.16
2024-01-20T10:20:41.075Z,56.79
2024-01-20T10:23:09.688Z,57.73
2024-01-20T10:25:38.677Z,59.78
2024-01-20T10:28:08.942Z,59.97
2024-01-20T10:30:39.294Z,61.40
2024-01-20T10:33:10.998Z,61.51
2024-01-20T10:35:40.258Z,62.88
2024-01-20T10:38:15.299Z,63.80
2024-01-20T10:40:46.738Z,61.13
2024-01-20T10:43:17.314Z,56.69
2024-01-20T10:45:52.901Z,55.13
2024-01-20T10:48:29.474Z,56.85
2024-01-20T10:51:01.666Z,57.64
2024-01-20T10:53:30.473Z,58.49
2024-01-20T10:55:59.829Z,58.26
2024-01-20T10:58:35.215Z,60.89
2024-01-20T11:01:05.160Z,61.42
2024-01-20T11:03:33.932Z,63.00
2024-01-20T11:06:02.149Z,63.14
2024-01-20T11:08:33.145Z,58.44
2024-01-20T11:11:01.619Z,55.44
2024-01-20T11:13:29.452Z,56.54
2024-01-20T11:15:59.202Z,56.97
2024-01-20T11:18:28.776Z,59.03
2024-01-20T11:20:59.945Z,60.27
2024-01-20T11:23:28.937Z,60.70
2024-01-20T11:25:58.437Z,61.14
2024-01-20T11:28:34.153Z,61.18
2024-01-20T11:31:03.822Z,60.31
2024-01-20T11:33:33.063Z,62.57
2024-01-20T11:36:01.787Z,64.98
2024-01-20T11:38:32.532Z,59.92
2024-01-20T11:41:01.956Z,53.30
2024-01-20T11:43:31.148Z,53.43
2024-01-20T11:45:59.389Z,55.16
2024-01-20T11:48:27.714Z,56.44
2024-01-20T11:50:55.819Z,57.92
2024-01-20T11:53:24.089Z,59.24
2024-01-20T11:56:01.005Z,59.91
2024-01-20T11:58:29.284Z,60.88
2024-01-20T12:00:59.427Z,60.76
2024-01-20T12:03:28.395Z,61.68
2024-01-20T12:05:57.362Z,61.28
2024-01-20T12:08:25.409Z,62.07
2024-01-20T12:10:53.252Z,64.27
2024-01-20T12:13:21.785Z,64.00
2024-01-20T12:15:51.105Z,57.88
2024-01-20T12:18:19.172Z,54.42
2024-01-20T12:20:48.237Z,55.14
2024-01-20T12:23:21.397Z,56.51
2024-01-20T12:25:54.448Z,58.28
2024-01-20T12:28:23.139Z,59.24
2024-01-20T12:30:51.547Z,59.47
2024-01-20T12:33:19.654Z,60.85
2024-01-20T12:35:47.770Z,61.22
2024-01-20T12:38:16.227Z,62.12
2024-01-20T12:40:44.131Z,64.20
2024-01-20T12:43:12.386Z,62.81
2024-01-20T12:45:40.304Z,56.78
2024-01-20T12:48:08.635Z,54.68
2024-01-20T12:50:36.636Z,55.75
2024-01-20T12:53:04.875Z,57.39
2024-01-20T12:55:32.809Z,59.06
2024-01-20T12:58:00.934Z,59.58
2024-01-20T13:00:28.975Z,60.35
2024-01-20T13:02:56.905Z,60.47
2024-01-20T13:05:25.031Z,61.26
2024-01-20T13:07:53.111Z,61.93
2024-01-20T13:10:21.278Z,62.68
2024-01-20T13:12:49.368Z,65.67
2024-01-20T13:15:17.814Z,63.80
2024-01-20T13:17:45.894Z,54.98
2024-01-20T13:20:14.059Z,53.89
2024-01-20T13:22:42.049Z,55.71
2024-01-20T13:25:10.483Z,57.46
2024-01-20T13:27:38.471Z,57.99
2024-01-20T13:30:07.886Z,58.94
2024-01-20T13:32:36.483Z,59.30
2024-01-20T13:35:05.766Z,60.26
2024-01-20T13:37:33.719Z,61.77
2024-01-20T13:40:01.886Z,62.39
2024-01-20T13:42:29.908Z,63.73
2024-01-20T13:44:57.764Z,62.00
2024-01-20T13:47:25.830Z,56.82
2024-01-20T13:49:53.869Z,54.89
2024-01-20T13:52:22.101Z,55.72
2024-01-20T13:54:50.012Z,56.91
2024-01-20T13:57:18.400Z,57.88
2024-01-20T13:59:46.357Z,59.20
2024-01-20T14:02:14.232Z,60.11
2024-01-20T14:04:42.310Z,60.87
2024-01-20T14:07:10.597Z,61.99
2024-01-20T14:09:39.216Z,64.04
2024-01-20T14:12:08.061Z,64.57
2024-01-20T14:14:37.473Z,60.84
2024-01-20T14:17:05.872Z,57.15
2024-01-20T14:19:33.825Z,56.28
2024-01-20T14:22:02.084Z,58.30
2024-01-20T14:24:29.932Z,60.11
2024-01-20T14:26:57.992Z,61.70
2024-01-20T14:29:25.984Z,64.26
2024-01-20T14:31:54.712Z,65.55
2024-01-20T14:34:23.471Z,63.01
2024-01-20T14:36:54.574Z,63.20
2024-01-20T14:39:24.136Z,61.38
2024-01-20T14:41:52.359Z,58.11
2024-01-20T14:44:20.454Z,57.83
2024-01-20T14:46:48.702Z,60.38
2024-01-20T14:49:16.692Z,63.65
2024-01-20T14:51:46.574Z,64.49
2024-01-20T14:54:14.847Z,61.79
2024-01-20T14:56:42.988Z,61.40
2024-01-20T14:59:11.306Z,59.42
2024-01-20T15:01:39.603Z,57.92
2024-01-20T15:04:08.458Z,60.19
2024-01-20T15:06:36.575Z,63.39
2024-01-20T15:09:06.152Z,65.20
2024-01-20T15:11:34.683Z,62.77
2024-01-20T15:14:03.248Z,61.82
2024-01-20T15:16:31.045Z,58.76
2024-01-20T15:18:59.002Z,58.52
2024-01-20T15:21:27.165Z,60.34
2024-01-20T15:23:55.305Z,62.88
2024-01-20T15:26:23.221Z,65.57
2024-01-20T15:28:51.096Z,63.97
2024-01-20T15:31:19.336Z,61.55
2024-01-20T15:33:47.938Z,58.80
2024-01-20T15:36:19.324Z,57.95
2024-01-20T15:38:47.161Z,60.47
2024-01-20T15:41:15.929Z,65.25
2024-01-20T15:43:44.781Z,65.30
2024-01-20T15:46:13.080Z,62.92
2024-01-20T15:48:41.118Z,61.77
2024-01-20T15:51:09.172Z,61.66
2024-01-20T15:53:37.341Z,59.34
2024-01-20T15:56:06.063Z,59.38
2024-01-20T15:58:33.889Z,61.11
2024-01-20T16:01:01.803Z,63.71
2024-01-20T16:03:30.010Z,66.41
2024-01-20T16:05:58.095Z,64.74
2024-01-20T16:08:26.495Z,63.15
2024-01-20T16:10:54.574Z,62.24
2024-01-20T16:13:22.537Z,61.06
2024-01-20T16:15:50.438Z,61.70
2024-01-20T16:18:18.763Z,60.34
2024-01-20T16:20:47.560Z,58.81
2024-01-20T16:23:17.987Z,59.13
2024-01-20T16:25:46.032Z,62.77
2024-01-20T16:28:14.026Z,65.60
2024-01-20T16:30:41.923Z,65.33
2024-01-20T16:33:10.025Z,64.72
2024-01-20T16:35:38.649Z,63.70
2024-01-20T16:38:06.747Z,62.27
2024-01-20T16:40:34.543Z,60.59
2024-01-20T16:43:02.321Z,61.08
2024-01-20T16:45:30.378Z,59.80
2024-01-20T16:47:58.669Z,58.03
2024-01-20T16:50:26.820Z,60.45
2024-01-20T16:52:54.766Z,63.59
2024-01-20T16:55:22.671Z,65.58
2024-01-20T16:57:51.198Z,66.57
2024-01-20T17:00:19.737Z,63.34
2024-01-20T17:02:47.767Z,60.99
2024-01-20T17:05:16.098Z,60.53
2024-01-20T17:07:45.766Z,59.92
2024-01-20T17:10:15.120Z,58.79
2024-01-20T17:12:43.096Z,57.76
2024-01-20T17:15:11.920Z,60.33
2024-01-20T17:17:39.886Z,63.48
2024-01-20T17:20:08.406Z,66.05
2024-01-20T17:22:36.215Z,63.69
2024-01-20T17:25:04.150Z,62.39
2024-01-20T17:27:31.996Z,57.94
2024-01-20T17:29:59.951Z,56.79
2024-01-20T17:32:27.937Z,60.31
2024-01-20T17:34:56.217Z,61.89
2024-01-20T17:37:25.077Z,65.87
2024-01-20T17:39:54.330Z,66.46
2024-01-20T17:42:22.393Z,62.07
2024-01-20T17:44:50.527Z,58.83
2024-01-20T17:47:18.494Z,57.77
2024-01-20T17:49:46.493Z,58.68
2024-01-20T17:52:14.623Z,61.08
2024-01-20T17:54:44.552Z,64.88
2024-01-20T17:57:15.642Z,65.17
2024-01-20T17:59:43.459Z,62.66
2024-01-20T18:02:11.813Z,60.67
2024-01-20T18:04:41.161Z,60.10
2024-01-20T18:07:09.460Z,57.08
2024-01-20T18:09:38.794Z,57.89
2024-01-20T18:12:08.425Z,59.74
2024-01-20T18:14:36.400Z,64.04
2024-01-20T18:17:06.638Z,65.36
2024-01-20T18:19:34.951Z,64.19
2024-01-20T18:22:03.055Z,61.71
2024-01-20T18:24:31.023Z,56.81
2024-01-20T18:26:59.097Z,56.41
2024-01-20T18:29:27.364Z,57.88
2024-01-20T18:31:55.670Z,60.24
2024-01-20T18:34:24.055Z,64.23
2024-01-20T18:36:52.732Z,65.05
2024-01-20T18:39:20.807Z,62.51
2024-01-20T18:41:49.268Z,61.77
2024-01-20T18:44:17.091Z,58.51
2024-01-20T18:46:45.308Z,57.62
2024-01-20T18:49:13.182Z,59.24
2024-01-20T18:51:41.465Z,60.93
2024-01-20T18:54:09.840Z,65.05
2024-01-20T18:56:37.680Z,65.06
2024-01-20T18:59:05.905Z,63.47
2024-01-20T19:01:34.129Z,61.73
2024-01-20T19:04:02.194Z,61.14
2024-01-20T19:06:31.108Z,57.58
2024-01-20T19:08:59.478Z,56.45
2024-01-20T19:11:27.452Z,59.58
2024-01-20T19:13:57.652Z,63.01
2024-01-20T19:16:25.776Z,65.82
2024-01-20T19:18:54.002Z,63.37
2024-01-20T19:21:22.026Z,60.20
2024-01-20T19:23:50.170Z,57.31
2024-01-20T19:26:18.006Z,56.44
2024-01-20T19:28:46.440Z,58.14
2024-01-20T19:31:14.885Z,60.18
2024-01-20T19:33:46.728Z,64.46
2024-01-20T19:36:14.985Z,66.40
2024-01-20T19:38:43.090Z,63.06
2024-01-20T19:41:10.916Z,61.92
2024-01-20T19:43:39.599Z,57.69
2024-01-20T19:46:07.717Z,56.73
2024-01-20T19:48:36.203Z,59.33
2024-01-20T19:51:05.285Z,61.73
2024-01-20T19:53:33.188Z,65.67
2024-01-20T19:56:01.959Z,66.04
2024-01-20T19:58:29.922Z,63.38
2024-01-20T20:00:57.864Z,60.82
2024-01-20T20:03:26.313Z,58.61
2024-01-20T20:05:54.371Z,56.77
2024-01-20T20:08:25.060Z,58.82
2024-01-20T20:10:53.542Z,60.67
2024-01-20T20:13:26.942Z,63.73
2024-01-20T20:15:55.777Z,65.68
2024-01-20T20:18:23.906Z,63.36
2024-01-20T20:20:52.610Z,62.02
2024-01-20T20:23:20.555Z,60.92
2024-01-20T20:25:48.636Z,57.93
2024-01-20T20:28:16.571Z,57.90
2024-01-20T20:30:46.026Z,59.56
2024-01-20T20:33:15.193Z,62.28
2024-01-20T20:35:43.121Z,65.97
2024-01-20T20:38:11.218Z,64.81
2024-01-20T20:40:39.218Z,61.78
2024-01-20T20:43:07.136Z,60.10
2024-01-20T20:45:35.608Z,58.03
2024-01-20T20:48:04.021Z,57.99
2024-01-20T20:50:32.011Z,58.78
2024-01-20T20:52:59.951Z,62.00
2024-01-20T20:55:27.955Z,64.31
2024-01-20T20:57:55.941Z,65.34
2024-01-20T21:00:23.917Z,63.10
2024-01-20T21:02:51.987Z,61.55
2024-01-20T21:05:20.318Z,57.48
2024-01-20T21:07:48.735Z,55.38
2024-01-20T21:10:18.526Z,56.15
2024-01-20T21:12:47.646Z,58.89
2024-01-20T21:15:17.082Z,60.72
2024-01-20T21:17:45.451Z,64.15
2024-01-20T21:20:13.885Z,66.77
2024-01-20T21:22:41.947Z,64.27
2024-01-20T21:25:10.734Z,60.37
2024-01-20T21:27:38.656Z,58.70
2024-01-20T21:30:08.626Z,57.34
2024-01-20T21:32:36.972Z,60.39
2024-01-20T21:35:05.623Z,63.60
2024-01-20T21:37:33.593Z,65.64
2024-01-20T21:40:01.621Z,64.61
2024-01-20T21:42:29.521Z,61.46
2024-01-20T21:45:01.158Z,59.58
2024-01-20T21:47:29.477Z,56.42
2024-01-20T21:49:57.882Z,56.21
2024-01-20T21:52:25.813Z,59.83
2024-01-20T21:54:53.774Z,60.69
2024-01-20T21:57:22.040Z,63.83
2024-01-20T21:59:49.952Z,65.38
2024-01-20T22:02:17.998Z,65.14
2024-01-20T22:04:45.885Z,63.93
2024-01-20T22:07:13.805Z,63.18
2024-01-20T22:09:41.793Z,61.49
2024-01-20T22:12:09.807Z,61.09
2024-01-20T22:14:37.873Z,60.48
2024-01-20T22:17:06.392Z,60.39
2024-01-20T22:19:34.547Z,60.14
2024-01-20T22:22:02.903Z,59.86
2024-01-20T22:24:30.898Z,59.72
2024-01-20T22:26:59.126Z,58.57
2024-01-20T22:29:31.290Z,57.21
2024-01-20T22:32:01.532Z,59.00
2024-01-20T22:34:32.609Z,61.50
2024-01-20T22:37:01.689Z,63.58
2024-01-20T22:39:30.683Z,65.34
2024-01-20T22:41:58.765Z,65.26
2024-01-20T22:44:26.930Z,64.00
2024-01-20T22:46:55.074Z,62.54
2024-01-20T22:49:23.264Z,62.06
2024-01-20T22:51:51.573Z,61.49
2024-01-20T22:54:23.588Z,61.03
2024-01-20T22:56:52.558Z,61.09
2024-01-20T22:59:20.653Z,61.03
2024-01-20T23:01:48.705Z,60.93
2024-01-20T23:04:16.796Z,60.38
2024-01-20T23:06:46.889Z,59.70
2024-01-20T23:09:14.749Z,58.49
2024-01-20T23:11:42.586Z,57.98
2024-01-20T23:14:10.424Z,59.00
2024-01-20T23:16:38.706Z,62.53
2024-01-20T23:19:06.668Z,64.25
2024-01-20T23:21:34.941Z,64.92
2024-01-20T23:24:03.022Z,63.85
2024-01-20T23:26:31.001Z,63.04
2024-01-20T23:28:58.803Z,62.66
2024-01-20T23:31:26.947Z,61.69
2024-01-20T23:33:55.120Z,61.09
2024-01-20T23:36:23.043Z,60.67
2024-01-20T23:38:51.335Z,59.50
2024-01-20T23:41:21.865Z,56.97
2024-01-20T23:43:49.628Z,57.48
2024-01-20T23:46:17.728Z,60.26
2024-01-20T23:48:45.845Z,62.14
2024-01-20T23:51:15.081Z,64.34
2024-01-20T23:53:43.080Z,64.24
2024-01-20T23:56:11.513Z,62.86
2024-01-20T23:58:39.381Z,60.53
